Time;durP1;ratioP1;P1;durP2;ratioP2;P2;SDS_P1;SDS_P2;PMS_P1;PMS_P2;Temp;Humidity;BMP_temperature;BMP_pressure;BME280_temperature;BME280_humidity;BME280_pressure;Samples;Min_cycle;Max_cycle;Signal;HPM_P1;HPM_P2
2022/10/23 00:01:25;;;;;;;54.60;37.47;;;26.20;99.90;;;;;;4993497;28;20446;-63
2022/10/23 00:03:52;;;;;;;;;;;26.20;99.90;;;;;;4994880;28;20022;-60
2022/10/23 00:06:19;;;;;;;59.22;38.10;;;26.20;99.90;;;;;;4994546;28;19906;-63
2022/10/23 00:08:47;;;;;;;62.47;39.70;;;26.10;99.90;;;;;;4994615;28;20114;-63
2022/10/23 00:11:16;;;;;;;77.60;47.28;;;26.10;99.90;;;;;;4994122;28;20034;-63
2022/10/23 00:13:43;;;;;;;105.15;70.57;;;26.10;99.90;;;;;;4993870;28;20022;-64
2022/10/23 00:16:10;;;;;;;79.47;51.17;;;26.20;99.90;;;;;;4994357;28;20085;-63
2022/10/23 00:18:38;;;;;;;57.80;41.88;;;26.30;99.90;;;;;;4994127;28;20054;-63
2022/10/23 00:21:06;;;;;;;93.05;72.63;;;26.30;99.90;;;;;;4994361;28;20018;-62
2022/10/23 00:23:32;;;;;;;181.50;158.38;;;26.40;99.90;;;;;;4994662;28;20442;-63
2022/10/23 00:25:59;;;;;;;103.55;84.18;;;26.50;99.90;;;;;;4994114;28;20018;-62
2022/10/23 00:28:26;;;;;;;83.25;60.47;;;26.50;99.90;;;;;;4994222;28;20022;-59
2022/10/23 00:30:53;;;;;;;66.45;48.65;;;26.60;99.90;;;;;;5018371;23;20057;-60
2022/10/23 00:33:19;;;;;;;69.45;49.72;;;26.50;99.90;;;;;;5013835;28;20026;-59
2022/10/23 00:35:46;;;;;;;66.53;47.72;;;26.40;99.90;;;;;;5013957;28;20522;-61
2022/10/23 00:38:12;;;;;;;97.07;74.55;;;26.30;99.90;;;;;;5013799;28;20033;-62
2022/10/23 00:40:41;;;;;;;96.47;58.70;;;26.40;99.90;;;;;;5013896;28;20029;-62
2022/10/23 00:43:17;;;;;;;301.40;236.18;;;26.50;99.90;;;;;;5014041;28;20033;-59
2022/10/23 00:45:44;;;;;;;202.60;155.45;;;26.60;99.90;;;;;;5013372;28;20045;-62
2022/10/23 00:48:10;;;;;;;104.45;72.93;;;26.50;99.90;;;;;;5013171;28;20187;-62
2022/10/23 00:50:37;;;;;;;150.95;122.15;;;26.50;99.90;;;;;;5013239;28;20036;-63
2022/10/23 00:53:04;;;;;;;93.80;68.38;;;26.60;99.90;;;;;;5013411;28;20109;-65
2022/10/23 00:55:32;;;;;;;54.72;38.10;;;26.80;99.90;;;;;;5013011;28;20486;-63
2022/10/23 00:57:59;;;;;;;48.67;36.42;;;26.70;99.90;;;;;;5013118;28;20022;-64
2022/10/23 01:00:27;;;;;;;101.88;79.43;;;26.70;99.90;;;;;;5013204;28;20077;-64
2022/10/23 01:02:55;;;;;;;83.18;63.17;;;26.80;99.90;;;;;;5013559;28;20395;-64
2022/10/23 01:05:29;;;;;;;73.63;55.15;;;26.90;99.90;;;;;;5013125;28;20021;-64
2022/10/23 01:08:04;;;;;;;59.10;38.38;;;27.00;99.90;;;;;;5013026;28;20537;-62
2022/10/23 01:10:41;;;;;;;50.28;33.05;;;27.00;99.90;;;;;;5013161;28;20026;-65
2022/10/23 01:13:21;;;;;;;45.10;31.15;;;27.00;99.90;;;;;;5012935;28;20022;-61
2022/10/23 01:15:52;;;;;;;47.25;32.22;;;27.10;99.90;;;;;;5013264;28;20026;-63
2022/10/23 01:18:29;;;;;;;52.08;32.97;;;27.20;99.90;;;;;;5013040;28;20054;-64
2022/10/23 01:21:05;;;;;;;46.55;28.00;;;27.20;99.90;;;;;;5013243;28;20096;-64
2022/10/23 01:23:51;;;;;;;49.53;30.63;;;27.30;99.90;;;;;;5012893;28;20454;-64
2022/10/23 01:26:22;;;;;;;53.90;31.60;;;27.30;99.90;;;;;;4989741;28;20092;-62
2022/10/23 01:28:55;;;;;;;59.13;36.38;;;27.40;99.90;;;;;;5016844;28;20028;-67
2022/10/23 01:31:31;;;;;;;58.63;34.28;;;27.40;99.90;;;;;;5016579;28;20201;-62
2022/10/23 01:34:06;;;;;;;64.93;40.30;;;27.40;99.90;;;;;;5016828;28;20014;-64
2022/10/23 01:36:36;;;;;;;56.30;34.55;;;27.50;99.90;;;;;;5016460;28;20025;-62
2022/10/23 01:39:14;;;;;;;68.75;42.95;;;27.50;99.90;;;;;;5016702;28;20056;-63
2022/10/23 01:41:58;;;;;;;74.00;41.67;;;27.50;99.90;;;;;;5016350;28;20030;-64
2022/10/23 01:44:28;;;;;;;73.95;44.05;;;27.70;99.90;;;;;;5016592;28;20022;-64
2022/10/23 01:46:57;;;;;;;70.25;44.88;;;27.80;99.90;;;;;;5010020;28;20395;-63
2022/10/23 01:49:23;;;;;;;91.53;51.85;;;27.80;99.90;;;;;;5007976;28;20033;-68
2022/10/23 01:51:55;;;;;;;78.72;49.50;;;27.80;99.90;;;;;;5016518;28;20501;-59
2022/10/23 01:54:28;;;;;;;73.45;52.03;;;27.90;99.90;;;;;;5016160;28;20403;-61
2022/10/23 01:56:57;;;;;;;89.57;57.50;;;27.80;99.90;;;;;;5015947;28;20037;-63
2022/10/23 01:59:37;;;;;;;84.95;53.90;;;27.80;99.90;;;;;;5014669;28;20041;-65
2022/10/23 02:02:05;;;;;;;81.28;56.75;;;27.80;99.90;;;;;;5014750;28;20023;-61
2022/10/23 02:04:50;;;;;;;110.68;77.75;;;27.90;99.90;;;;;;5014727;28;20459;-63
2022/10/23 02:07:16;;;;;;;131.75;83.00;;;28.00;99.90;;;;;;5013400;28;20022;-61
2022/10/23 02:09:43;;;;;;;91.80;63.90;;;28.10;99.90;;;;;;5014762;28;20398;-64
2022/10/23 02:12:16;;;;;;;70.68;47.53;;;28.20;99.90;;;;;;5014582;28;20032;-60
2022/10/23 02:15:01;;;;;;;38.40;27.40;;;28.30;99.90;;;;;;5014578;28;20474;-64
2022/10/23 02:17:33;;;;;;;45.63;30.73;;;28.10;99.90;;;;;;5011958;28;20022;-64
2022/10/23 02:20:16;;;;;;;43.65;30.13;;;28.20;99.90;;;;;;5013308;28;20045;-66
2022/10/23 02:22:53;;;;;;;48.53;33.00;;;28.10;99.90;;;;;;5014244;28;20041;-66
2022/10/23 02:25:28;;;;;;;68.85;48.10;;;28.20;99.90;;;;;;5016095;28;20056;-65
2022/10/23 02:27:57;;;;;;;38.38;24.20;;;28.40;99.90;;;;;;4998137;28;20390;-62
2022/10/23 02:30:24;;;;;;;38.63;26.27;;;28.60;99.90;;;;;;5015431;28;20036;-65
2022/10/23 02:32:53;;;;;;;30.05;20.40;;;28.60;99.90;;;;;;5015511;28;20033;-62
2022/10/23 02:35:23;;;;;;;47.78;26.05;;;28.70;99.90;;;;;;5008751;28;20030;-62
2022/10/23 02:37:53;;;;;;;49.33;24.02;;;28.80;99.90;;;;;;5014828;28;20024;-64
2022/10/23 02:40:22;;;;;;;29.23;20.35;;;28.90;99.90;;;;;;5015044;28;20113;-64
2022/10/23 02:42:54;;;;;;;26.75;17.77;;;28.90;99.90;;;;;;5015003;28;20024;-64
2022/10/23 02:45:25;;;;;;;;;;;28.90;99.90;;;;;;5015068;28;20379;-66
2022/10/23 02:47:54;;;;;;;23.20;17.43;;;28.90;99.90;;;;;;5006506;28;19909;-65
2022/10/23 02:50:35;;;;;;;27.92;19.75;;;28.90;99.90;;;;;;5012996;28;20037;-65
2022/10/23 02:53:04;;;;;;;35.08;20.55;;;29.00;99.90;;;;;;5006335;28;20104;-61
2022/10/23 02:55:35;;;;;;;27.85;17.13;;;29.00;99.90;;;;;;5003682;28;20201;-58
2022/10/23 02:58:27;;;;;;;49.15;33.15;;;29.00;99.90;;;;;;4995752;28;20027;-63
2022/10/23 03:01:15;;;;;;;18.73;13.20;;;29.10;99.90;;;;;;4995595;28;20456;-66
2022/10/23 03:03:50;;;;;;;16.70;11.60;;;29.20;99.90;;;;;;4990260;28;20476;-64
2022/10/23 03:06:17;;;;;;;15.55;9.57;;;29.20;99.90;;;;;;4995202;28;20014;-63
2022/10/23 03:08:51;;;;;;;16.98;11.43;;;29.20;99.90;;;;;;4995230;28;20383;-64
2022/10/23 03:11:17;;;;;;;16.10;10.48;;;29.40;99.90;;;;;;4995458;28;20428;-65
2022/10/23 03:13:44;;;;;;;16.08;11.30;;;29.50;99.90;;;;;;4994746;28;20041;-63
2022/10/23 03:16:11;;;;;;;27.95;14.75;;;29.50;99.90;;;;;;4994959;28;20029;-63
2022/10/23 03:18:37;;;;;;;17.25;10.25;;;29.50;99.90;;;;;;4994745;28;20022;-63
2022/10/23 03:21:04;;;;;;;14.98;10.38;;;29.50;99.90;;;;;;4994903;28;20015;-62
2022/10/23 03:23:30;;;;;;;16.33;10.40;;;29.40;99.90;;;;;;4994664;28;20026;-63
2022/10/23 03:25:57;;;;;;;17.38;11.75;;;29.50;99.90;;;;;;5005244;28;20109;-63
2022/10/23 03:28:23;;;;;;;17.90;12.00;;;29.50;99.90;;;;;;4995393;28;20084;-62
2022/10/23 03:30:50;;;;;;;20.38;13.05;;;29.70;99.90;;;;;;4995444;28;20434;-63
2022/10/23 03:33:16;;;;;;;17.27;11.63;;;29.70;99.90;;;;;;5004691;28;20048;-63
2022/10/23 03:35:43;;;;;;;17.83;12.35;;;29.80;99.90;;;;;;5014203;28;20022;-64
2022/10/23 03:38:09;;;;;;;17.38;11.32;;;29.90;99.90;;;;;;5014678;28;20025;-63
2022/10/23 03:40:36;;;;;;;15.77;10.65;;;29.80;99.90;;;;;;5013875;28;20486;-63
2022/10/23 03:43:02;;;;;;;16.95;11.13;;;29.80;99.90;;;;;;5014531;28;20028;-63
2022/10/23 03:45:29;;;;;;;17.20;10.63;;;29.70;99.90;;;;;;5014462;28;20014;-63
2022/10/23 03:47:56;;;;;;;20.83;10.75;;;29.70;99.90;;;;;;5013767;28;20029;-62
2022/10/23 03:50:23;;;;;;;14.93;9.65;;;29.70;99.90;;;;;;5014331;28;20033;-64
2022/10/23 03:52:49;;;;;;;14.65;8.25;;;29.70;99.90;;;;;;5014869;28;20026;-65
2022/10/23 03:55:16;;;;;;;16.90;8.88;;;29.80;99.90;;;;;;4996200;28;20358;-66
2022/10/23 03:57:42;;;;;;;13.43;9.30;;;29.90;99.90;;;;;;5014284;28;20434;-68
2022/10/23 04:00:09;;;;;;;24.77;12.40;;;30.10;99.90;;;;;;5013985;28;20018;-65
2022/10/23 04:02:36;;;;;;;14.25;7.78;;;30.20;99.90;;;;;;5014043;28;20022;-67
2022/10/23 04:05:03;;;;;;;14.43;9.00;;;30.30;99.90;;;;;;5014316;28;20418;-66
2022/10/23 04:07:29;;;;;;;14.45;9.45;;;30.40;99.90;;;;;;5013879;28;20431;-66
2022/10/23 04:09:56;;;;;;;21.63;11.05;;;30.40;99.90;;;;;;5013520;28;20395;-67
2022/10/23 04:12:22;;;;;;;14.52;10.20;;;30.50;99.90;;;;;;5011736;28;20081;-64
2022/10/23 04:14:49;;;;;;;18.77;9.25;;;30.40;99.90;;;;;;5011939;28;20018;-65
2022/10/23 04:17:15;;;;;;;18.65;8.98;;;30.50;99.90;;;;;;5011824;28;20030;-64
2022/10/23 04:19:42;;;;;;;17.15;9.38;;;30.50;99.90;;;;;;5011515;28;20617;-62
2022/10/23 04:22:08;;;;;;;15.85;8.75;;;30.60;99.90;;;;;;5010406;28;20029;-66
2022/10/23 04:24:35;;;;;;;16.92;10.07;;;30.60;99.90;;;;;;5012403;28;20018;-68
2022/10/23 04:27:01;;;;;;;17.00;8.90;;;30.60;99.90;;;;;;5013427;28;20030;-68
2022/10/23 04:29:31;;;;;;;14.23;8.00;;;30.60;99.90;;;;;;5012593;28;20081;-67
2022/10/23 04:31:57;;;;;;;13.60;8.07;;;30.70;99.90;;;;;;5013312;28;20041;-68
2022/10/23 04:34:24;;;;;;;15.18;9.07;;;30.90;99.90;;;;;;5012828;28;20038;-66
2022/10/23 04:36:51;;;;;;;15.50;7.45;;;31.00;99.90;;;;;;5013448;28;20068;-67
2022/10/23 04:39:17;;;;;;;20.02;8.15;;;30.90;99.90;;;;;;5013071;28;20022;-66
2022/10/23 04:41:44;;;;;;;12.18;8.00;;;30.90;99.90;;;;;;5012845;28;20014;-67
2022/10/23 04:44:10;;;;;;;17.70;9.68;;;31.00;99.90;;;;;;5012966;28;20109;-67
2022/10/23 04:46:37;;;;;;;15.82;8.98;;;31.00;99.90;;;;;;5013845;28;20100;-67
2022/10/23 04:49:04;;;;;;;16.10;7.47;;;30.90;99.90;;;;;;5013255;28;20018;-68
2022/10/23 04:51:30;;;;;;;26.05;10.57;;;30.90;99.90;;;;;;5012680;28;20105;-69
2022/10/23 04:53:56;;;;;;;15.77;9.13;;;30.80;99.90;;;;;;5013225;28;20083;-67
2022/10/23 04:56:23;;;;;;;12.70;8.25;;;30.70;99.90;;;;;;5012373;28;20080;-67
2022/10/23 04:58:51;;;;;;;20.05;10.68;;;30.60;99.90;;;;;;5013853;28;20018;-67
2022/10/23 05:01:17;;;;;;;17.38;11.18;;;30.60;99.90;;;;;;5016302;28;20108;-65
2022/10/23 05:03:44;;;;;;;15.75;10.00;;;30.70;99.90;;;;;;5008585;28;20117;-67
2022/10/23 05:06:11;;;;;;;22.73;12.68;;;30.70;99.90;;;;;;5000364;28;20023;-67
2022/10/23 05:08:37;;;;;;;23.20;12.55;;;30.70;99.90;;;;;;4999814;28;20475;-67
2022/10/23 05:11:04;;;;;;;22.13;12.77;;;30.70;99.90;;;;;;5003618;28;20021;-67
2022/10/23 05:13:30;;;;;;;25.33;12.93;;;30.60;99.90;;;;;;5019452;28;20060;-68
2022/10/23 05:15:59;;;;;;;19.58;12.45;;;30.60;99.90;;;;;;5019395;28;20495;-65
2022/10/23 05:18:33;;;;;;;19.33;10.80;;;30.60;99.90;;;;;;5018658;28;20041;-67
2022/10/23 05:21:05;;;;;;;17.40;10.27;;;30.50;99.90;;;;;;5019052;28;20014;-68
2022/10/23 05:23:35;;;;;;;14.48;9.75;;;30.60;99.90;;;;;;5019170;28;20479;-68
2022/10/23 05:26:03;;;;;;;15.55;10.68;;;30.50;99.90;;;;;;5019836;28;20021;-67
2022/10/23 05:28:30;;;;;;;22.00;11.10;;;30.50;99.90;;;;;;5018604;28;20079;-61
2022/10/23 05:31:02;;;;;;;16.13;11.00;;;30.50;99.90;;;;;;5019165;28;20038;-67
2022/10/23 05:33:30;;;;;;;31.17;24.20;;;30.50;99.90;;;;;;5013996;28;20436;-63
2022/10/23 05:35:57;;;;;;;23.77;12.88;;;30.50;99.90;;;;;;5016526;28;20105;-64
2022/10/23 05:38:26;;;;;;;27.67;15.68;;;30.20;99.90;;;;;;5019660;28;20030;-68
2022/10/23 05:40:53;;;;;;;41.25;20.77;;;29.90;99.90;;;;;;5019891;28;20463;-66
2022/10/23 05:43:20;;;;;;;34.83;21.23;;;29.50;99.90;;;;;;5019752;28;20026;-67
2022/10/23 05:45:46;;;;;;;39.17;20.73;;;29.40;99.90;;;;;;5019128;28;20036;-68
2022/10/23 05:48:15;;;;;;;46.25;22.73;;;28.90;99.90;;;;;;5019295;28;20022;-67
2022/10/23 05:50:41;;;;;;;42.88;25.52;;;28.30;99.90;;;;;;5019513;28;20043;-67
2022/10/23 05:53:10;;;;;;;34.85;21.90;;;27.90;99.90;;;;;;5018429;28;20033;-67
2022/10/23 05:55:37;;;;;;;36.10;22.95;;;28.00;99.90;;;;;;5003866;28;20029;-67
2022/10/23 05:58:04;;;;;;;51.17;34.47;;;28.10;99.90;;;;;;5019057;28;20030;-63
2022/10/23 06:00:31;;;;;;;46.97;32.63;;;28.10;99.90;;;;;;5016411;28;20375;-62
2022/10/23 06:03:00;;;;;;;28.83;19.45;;;28.00;99.90;;;;;;5019928;28;20026;-64
2022/10/23 06:05:27;;;;;;;27.55;16.98;;;28.00;99.90;;;;;;5015703;28;20056;-63
2022/10/23 06:08:01;;;;;;;26.23;15.90;;;28.00;99.90;;;;;;5008858;28;20022;-63
2022/10/23 06:10:27;;;;;;;27.48;13.75;;;27.90;99.90;;;;;;4999185;28;20113;-63
2022/10/23 06:12:54;;;;;;;16.50;12.70;;;27.80;99.90;;;;;;4997736;28;20088;-63
2022/10/23 06:15:20;;;;;;;24.92;14.82;;;27.80;99.90;;;;;;4997996;28;20054;-65
2022/10/23 06:17:47;;;;;;;20.63;12.80;;;27.90;99.90;;;;;;4997646;28;20026;-65
2022/10/23 06:20:13;;;;;;;14.80;9.88;;;27.90;99.90;;;;;;4997963;28;20014;-65
2022/10/23 06:22:40;;;;;;;11.85;9.90;;;27.80;99.90;;;;;;4997657;28;20035;-65
2022/10/23 06:25:07;;;;;;;9.93;8.00;;;27.80;99.90;;;;;;4997578;28;20023;-62
2022/10/23 06:27:34;;;;;;;10.10;7.75;;;27.80;99.90;;;;;;4997585;28;20022;-62
2022/10/23 06:30:00;;;;;;;9.57;7.93;;;27.80;99.90;;;;;;4996983;28;20019;-62
2022/10/23 06:32:30;;;;;;;9.23;7.70;;;27.90;99.90;;;;;;4997419;28;20499;-62
2022/10/23 06:34:56;;;;;;;7.85;6.90;;;28.00;99.90;;;;;;4997594;28;20026;-64
2022/10/23 06:37:23;;;;;;;9.10;6.40;;;28.10;99.90;;;;;;4997334;28;20028;-64
2022/10/23 06:39:49;;;;;;;9.85;4.05;;;28.10;99.90;;;;;;4996945;28;20053;-65
2022/10/23 06:42:16;;;;;;;6.60;3.55;;;28.00;99.90;;;;;;4996852;28;20472;-63
2022/10/23 06:44:42;;;;;;;7.28;4.07;;;27.90;99.90;;;;;;4999014;28;20019;-61
2022/10/23 06:47:11;;;;;;;6.75;4.05;;;27.80;99.90;;;;;;5007606;28;20026;-62
2022/10/23 06:49:38;;;;;;;7.45;5.00;;;27.90;99.90;;;;;;5010900;28;20037;-63
2022/10/23 06:52:04;;;;;;;8.10;4.88;;;27.90;99.90;;;;;;5028186;28;20029;-60
2022/10/23 06:54:31;;;;;;;8.25;4.40;;;28.10;99.90;;;;;;5023690;28;20037;-61
2022/10/23 06:56:58;;;;;;;3.53;3.00;;;28.10;99.90;;;;;;5015444;28;20034;-63
2022/10/23 06:59:24;;;;;;;10.27;5.03;;;27.90;99.90;;;;;;5016269;28;20466;-62
2022/10/23 07:01:51;;;;;;;5.78;4.00;;;27.90;99.90;;;;;;5015243;28;20092;-62
2022/10/23 07:04:17;;;;;;;5.15;4.03;;;27.90;99.90;;;;;;5015499;28;20379;-65
2022/10/23 07:06:44;;;;;;;6.72;5.22;;;28.00;99.90;;;;;;5015340;28;20076;-64
2022/10/23 07:09:10;;;;;;;9.02;4.78;;;27.90;99.90;;;;;;5019741;28;20107;-62
2022/10/23 07:11:37;;;;;;;10.27;5.18;;;27.90;99.90;;;;;;5033118;28;20030;-65
2022/10/23 07:14:04;;;;;;;6.85;4.10;;;27.90;99.90;;;;;;5016182;28;20104;-61
2022/10/23 07:16:30;;;;;;;6.97;4.65;;;27.90;99.90;;;;;;5009750;28;20021;-62
2022/10/23 07:18:59;;;;;;;9.23;4.65;;;27.90;99.90;;;;;;5011643;28;20045;-62
2022/10/23 07:21:34;;;;;;;9.40;5.35;;;27.80;99.90;;;;;;5012838;28;20018;-64
2022/10/23 07:24:01;;;;;;;8.88;4.80;;;27.90;99.90;;;;;;5010164;28;20018;-62
2022/10/23 07:26:28;;;;;;;7.07;5.30;;;28.10;99.90;;;;;;5014961;28;20540;-62
2022/10/23 07:28:55;;;;;;;10.25;5.15;;;28.10;99.90;;;;;;5014784;28;20038;-63
2022/10/23 07:31:23;;;;;;;9.40;5.35;;;28.20;99.90;;;;;;5014697;28;20065;-63
2022/10/23 07:33:50;;;;;;;10.27;6.00;;;28.10;99.90;;;;;;4993464;28;20045;-64
2022/10/23 07:36:17;;;;;;;60.47;41.95;;;28.10;99.90;;;;;;5001195;28;20026;-65
2022/10/23 07:38:44;;;;;;;17.90;9.90;;;28.10;99.90;;;;;;4998165;28;20117;-65
2022/10/23 07:41:11;;;;;;;21.52;6.90;;;28.20;99.90;;;;;;5009519;28;20025;-65
2022/10/23 07:43:38;;;;;;;13.20;7.53;;;28.30;99.90;;;;;;5011040;28;20370;-63
2022/10/23 07:46:07;;;;;;;14.48;10.73;;;28.30;99.90;;;;;;5022305;28;20022;-65
2022/10/23 07:48:33;;;;;;;10.07;7.40;;;28.30;99.90;;;;;;5033660;28;20437;-65
2022/10/23 07:51:02;;;;;;;40.40;30.40;;;28.30;99.90;;;;;;5025259;28;20033;-63
2022/10/23 07:53:28;;;;;;;8.93;6.22;;;28.30;99.90;;;;;;5012767;28;20088;-63
2022/10/23 07:55:57;;;;;;;9.73;5.75;;;28.10;99.90;;;;;;5013175;28;20033;-64
2022/10/23 07:58:25;;;;;;;9.00;5.97;;;27.90;99.90;;;;;;5019027;28;20485;-65
2022/10/23 08:00:57;;;;;;;7.78;5.95;;;27.90;99.90;;;;;;5033997;28;20049;-66
2022/10/23 08:03:24;;;;;;;;;;;27.80;99.90;;;;;;5034103;28;20026;-65
2022/10/23 08:05:52;;;;;;;11.25;6.18;;;27.80;99.90;;;;;;5033531;28;19912;-65
2022/10/23 08:08:20;;;;;;;10.15;5.90;;;27.90;99.90;;;;;;5033764;28;20022;-65
2022/10/23 08:10:48;;;;;;;24.65;13.57;;;27.80;99.90;;;;;;5034130;28;20044;-64
2022/10/23 08:13:15;;;;;;;10.23;7.22;;;27.90;99.90;;;;;;5033636;28;20029;-63
2022/10/23 08:15:45;;;;;;;13.80;6.03;;;27.90;99.90;;;;;;5033758;28;20474;-64
2022/10/23 08:18:11;;;;;;;9.52;5.03;;;27.90;99.90;;;;;;5033728;28;20036;-64
2022/10/23 08:20:40;;;;;;;17.27;6.07;;;27.90;99.90;;;;;;5033637;28;20029;-62
2022/10/23 08:23:07;;;;;;;10.00;5.78;;;27.90;99.90;;;;;;5033714;28;20024;-63
2022/10/23 08:25:34;;;;;;;11.40;6.80;;;28.00;99.90;;;;;;5033441;28;20021;-64
2022/10/23 08:28:01;;;;;;;12.18;6.85;;;28.10;99.90;;;;;;5033222;28;20022;-65
2022/10/23 08:30:27;;;;;;;10.85;5.45;;;28.20;99.90;;;;;;5033283;28;20028;-63
2022/10/23 08:32:54;;;;;;;8.75;5.25;;;28.30;99.90;;;;;;5033519;28;20458;-66
2022/10/23 08:35:20;;;;;;;6.65;5.07;;;28.30;99.90;;;;;;5032780;28;20022;-64
2022/10/23 08:37:47;;;;;;;8.52;5.20;;;28.30;99.90;;;;;;5033006;28;20029;-64
2022/10/23 08:40:24;;;;;;;7.40;5.15;;;28.20;99.90;;;;;;5033185;28;20433;-65
2022/10/23 08:43:10;;;;;;;12.27;5.75;;;28.30;99.90;;;;;;5033350;28;20024;-64
2022/10/23 08:45:44;;;;;;;9.43;5.93;;;28.30;99.90;;;;;;5015880;28;20113;-64
2022/10/23 08:48:18;;;;;;;8.32;5.22;;;28.30;99.90;;;;;;5033217;28;20509;-64
2022/10/23 08:50:49;;;;;;;11.93;6.05;;;28.30;99.90;;;;;;5033266;28;20025;-64
2022/10/23 08:53:21;;;;;;;11.20;7.68;;;28.30;99.90;;;;;;5033224;28;20021;-67
2022/10/23 08:56:00;;;;;;;10.27;7.57;;;28.30;99.90;;;;;;5033240;28;20026;-66
2022/10/23 08:58:36;;;;;;;12.40;7.65;;;28.30;99.90;;;;;;5032895;28;20033;-65
2022/10/23 09:01:17;;;;;;;13.20;8.30;;;28.40;99.90;;;;;;5033321;28;20052;-66
2022/10/23 09:03:43;;;;;;;11.88;8.40;;;28.50;99.90;;;;;;5032902;28;20017;-65
2022/10/23 09:06:19;;;;;;;15.07;9.18;;;28.50;99.90;;;;;;5033056;28;20029;-63
2022/10/23 09:08:57;;;;;;;12.52;7.63;;;28.50;99.90;;;;;;5033066;28;20044;-65
2022/10/23 09:11:32;;;;;;;11.95;7.15;;;28.60;99.90;;;;;;5032954;28;20113;-64
2022/10/23 09:14:03;;;;;;;16.67;7.30;;;28.50;99.90;;;;;;5033114;28;20057;-64
2022/10/23 09:16:29;;;;;;;11.65;7.95;;;28.50;99.90;;;;;;5032938;28;20029;-65
2022/10/23 09:18:57;;;;;;;17.83;9.90;;;28.40;99.90;;;;;;5033229;28;20093;-64
2022/10/23 09:21:28;;;;;;;16.30;9.60;;;28.50;99.90;;;;;;5032992;28;20025;-66
2022/10/23 09:23:55;;;;;;;17.27;8.73;;;28.50;99.90;;;;;;5032962;28;20026;-65
2022/10/23 09:26:22;;;;;;;17.38;9.50;;;28.60;99.90;;;;;;5033053;28;20021;-65
2022/10/23 09:29:12;;;;;;;24.48;8.73;;;28.60;99.90;;;;;;5033192;28;20052;-67
2022/10/23 09:31:51;;;;;;;14.55;9.18;;;28.60;99.90;;;;;;5032695;28;20609;-66
2022/10/23 09:34:21;;;;;;;11.95;7.60;;;28.60;99.90;;;;;;5032756;28;20029;-66
2022/10/23 09:36:58;;;;;;;12.38;8.02;;;28.50;99.90;;;;;;5033002;28;20119;-64
2022/10/23 09:39:29;;;;;;;14.50;8.30;;;28.50;99.90;;;;;;5022610;28;20022;-63
2022/10/23 09:41:56;;;;;;;14.45;8.45;;;28.50;99.90;;;;;;5004803;28;20383;-66
2022/10/23 09:44:29;;;;;;;18.02;7.07;;;28.50;99.90;;;;;;5008539;28;20057;-64
2022/10/23 09:47:00;;;;;;;13.40;7.90;;;28.40;99.90;;;;;;5015030;28;20030;-63
2022/10/23 09:49:30;;;;;;;12.40;7.20;;;28.50;99.90;;;;;;5016619;28;20545;-65
2022/10/23 09:52:02;;;;;;;16.50;8.15;;;28.50;99.90;;;;;;5016662;28;20475;-63
2022/10/23 09:54:33;;;;;;;14.43;8.45;;;28.50;99.90;;;;;;5016712;28;20509;-64
2022/10/23 09:57:18;;;;;;;19.70;9.57;;;28.50;99.90;;;;;;5016545;28;20034;-64
2022/10/23 09:59:51;;;;;;;15.95;9.48;;;28.50;99.90;;;;;;5016512;28;20018;-63
2022/10/23 10:02:38;;;;;;;18.55;11.43;;;28.60;99.90;;;;;;5016446;28;20028;-64
2022/10/23 10:05:09;;;;;;;18.90;9.07;;;28.60;99.90;;;;;;5014573;28;20044;-64
2022/10/23 10:07:37;;;;;;;17.10;9.57;;;28.60;99.90;;;;;;5016364;28;20036;-64
2022/10/23 10:10:12;;;;;;;25.83;14.52;;;28.60;99.90;;;;;;5016253;28;20065;-64
2022/10/23 10:12:47;;;;;;;24.98;14.95;;;28.60;99.90;;;;;;5016292;28;20113;-65
2022/10/23 10:15:18;;;;;;;31.60;14.25;;;28.60;99.90;;;;;;5016054;28;20394;-64
2022/10/23 10:17:47;;;;;;;20.67;12.45;;;28.60;99.90;;;;;;5016223;28;20026;-64
2022/10/23 10:20:21;;;;;;;20.90;12.80;;;28.60;99.90;;;;;;5016202;28;20022;-64
2022/10/23 10:22:55;;;;;;;26.92;13.75;;;28.60;99.90;;;;;;5016066;28;20044;-65
2022/10/23 10:25:26;;;;;;;23.25;10.45;;;28.50;99.90;;;;;;4998467;28;20465;-66
2022/10/23 10:28:03;;;;;;;15.23;10.13;;;28.50;99.90;;;;;;5015989;28;20095;-65
2022/10/23 10:30:40;;;;;;;17.33;10.32;;;28.40;99.90;;;;;;5016025;28;20101;-66
2022/10/23 10:33:28;;;;;;;32.22;12.52;;;28.40;99.90;;;;;;5015907;28;20034;-66
2022/10/23 10:36:01;;;;;;;21.95;12.35;;;28.40;99.90;;;;;;5015391;28;20076;-65
2022/10/23 10:38:38;;;;;;;21.25;13.27;;;28.30;99.90;;;;;;5015686;28;20026;-66
2022/10/23 10:41:10;;;;;;;20.90;13.32;;;28.30;99.90;;;;;;5015771;28;20092;-64
2022/10/23 10:43:39;;;;;;;34.90;17.88;;;28.20;99.90;;;;;;5015843;28;20033;-65
2022/10/23 10:46:23;;;;;;;30.90;17.00;;;28.20;99.90;;;;;;5015671;28;20022;-67
2022/10/23 10:48:56;;;;;;;39.50;21.20;;;28.20;99.90;;;;;;5015625;28;20026;-65
2022/10/23 10:51:45;;;;;;;44.67;20.55;;;28.20;99.90;;;;;;5015669;28;20475;-65
2022/10/23 10:54:16;;;;;;;46.30;22.38;;;28.20;99.90;;;;;;5007227;28;20514;-66
2022/10/23 10:56:44;;;;;;;39.65;20.48;;;28.20;99.90;;;;;;5015194;28;20032;-65
2022/10/23 10:59:13;;;;;;;41.88;19.05;;;28.20;99.90;;;;;;5015854;28;20026;-66
2022/10/23 11:01:49;;;;;;;50.22;22.20;;;28.20;99.90;;;;;;5015387;28;20104;-64
2022/10/23 11:04:18;;;;;;;46.30;22.42;;;28.20;99.90;;;;;;5015432;28;20509;-66
2022/10/23 11:06:48;;;;;;;55.47;27.35;;;28.20;99.90;;;;;;5015250;28;20054;-65
2022/10/23 11:09:27;;;;;;;58.80;31.75;;;28.20;99.90;;;;;;5015482;28;20423;-65
2022/10/23 11:11:55;;;;;;;75.60;35.38;;;28.10;99.90;;;;;;5015144;28;20022;-65
2022/10/23 11:14:32;;;;;;;68.30;32.92;;;28.10;99.90;;;;;;5015121;28;20187;-65
2022/10/23 11:17:07;;;;;;;62.55;32.53;;;28.00;99.90;;;;;;5015066;28;20084;-66
2022/10/23 11:19:46;;;;;;;68.68;34.60;;;27.90;99.90;;;;;;5014913;28;20014;-65
2022/10/23 11:22:17;;;;;;;66.00;32.83;;;27.90;99.90;;;;;;5015119;28;20014;-65
2022/10/23 11:24:49;;;;;;;68.82;34.20;;;27.80;99.90;;;;;;5014914;28;20022;-65
2022/10/23 11:27:19;;;;;;;83.30;38.15;;;27.80;99.90;;;;;;5014910;28;20036;-65
2022/10/23 11:29:56;;;;;;;49.78;24.55;;;27.90;99.90;;;;;;5014706;28;20093;-64
2022/10/23 11:32:25;;;;;;;43.42;22.05;;;27.70;99.90;;;;;;5014460;28;20069;-65
2022/10/23 11:34:55;;;;;;;37.80;18.05;;;27.70;99.90;;;;;;5009232;28;20065;-65
2022/10/23 11:37:23;;;;;;;26.25;16.00;;;27.60;99.90;;;;;;5003532;28;20026;-67
2022/10/23 11:39:55;;;;;;;26.55;15.07;;;27.60;99.90;;;;;;4995164;28;20023;-66
2022/10/23 11:42:29;;;;;;;18.60;11.88;;;27.60;99.90;;;;;;4995102;28;20081;-66
2022/10/23 11:44:55;;;;;;;27.85;13.77;;;27.60;99.90;;;;;;4995149;28;20058;-66
2022/10/23 11:47:25;;;;;;;29.30;14.77;;;27.70;99.90;;;;;;4995004;28;20026;-66
2022/10/23 11:50:06;;;;;;;26.98;14.80;;;27.60;99.90;;;;;;4994821;28;20101;-65
2022/10/23 11:52:35;;;;;;;28.23;15.32;;;27.50;99.90;;;;;;4994833;28;20446;-66
2022/10/23 11:55:14;;;;;;;28.80;15.02;;;27.50;99.90;;;;;;4994842;28;20030;-66
2022/10/23 11:57:41;;;;;;;25.65;14.15;;;27.50;99.90;;;;;;4994862;28;20108;-66
2022/10/23 12:00:13;;;;;;;31.15;15.23;;;27.50;99.90;;;;;;4994775;28;20047;-66
2022/10/23 12:02:41;;;;;;;23.17;13.80;;;27.50;99.90;;;;;;4994661;28;20491;-66
2022/10/23 12:05:26;;;;;;;23.67;13.45;;;27.50;99.90;;;;;;4994683;28;20035;-66
2022/10/23 12:07:57;;;;;;;23.42;13.60;;;27.50;99.90;;;;;;4994375;28;20468;-66
2022/10/23 12:10:33;;;;;;;21.98;10.90;;;27.50;99.90;;;;;;4993990;28;20479;-66
2022/10/23 12:13:03;;;;;;;26.05;13.05;;;27.30;99.90;;;;;;4994448;28;20076;-67
2022/10/23 12:15:31;;;;;;;25.40;14.05;;;27.20;99.90;;;;;;4994385;28;20101;-66
2022/10/23 12:18:03;;;;;;;29.98;12.75;;;27.20;99.90;;;;;;4994434;28;20018;-66
2022/10/23 12:20:39;;;;;;;20.65;10.52;;;27.10;99.90;;;;;;4994362;28;20023;-66
2022/10/23 12:23:09;;;;;;;18.25;10.07;;;27.10;99.90;;;;;;4994688;28;20027;-65
2022/10/23 12:25:38;;;;;;;17.98;9.75;;;27.10;99.90;;;;;;4994270;28;20015;-67
2022/10/23 12:28:10;;;;;;;18.60;11.32;;;27.10;99.90;;;;;;4994310;28;20034;-65
2022/10/23 12:30:46;;;;;;;23.02;11.90;;;27.10;99.90;;;;;;4998569;28;20026;-65
2022/10/23 12:33:25;;;;;;;23.88;12.32;;;27.00;99.90;;;;;;5003665;28;20037;-67
2022/10/23 12:35:57;;;;;;;22.95;11.68;;;27.00;99.90;;;;;;4999605;28;20036;-65
2022/10/23 12:38:25;;;;;;;23.98;11.13;;;27.10;99.90;;;;;;5009909;28;20453;-67
2022/10/23 12:40:57;;;;;;;21.00;11.60;;;27.10;99.90;;;;;;5013178;28;20041;-67
2022/10/23 12:43:36;;;;;;;24.07;11.80;;;27.10;99.90;;;;;;5013511;28;20025;-68
2022/10/23 12:46:17;;;;;;;26.08;12.30;;;27.10;99.90;;;;;;5013687;28;20628;-71
2022/10/23 12:48:48;;;;;;;31.02;12.15;;;27.20;99.90;;;;;;5013581;28;20033;-70